Time;durP1;ratioP1;P1;durP2;ratioP2;P2;SDS_P1;SDS_P2;PMS_P1;PMS_P2;Temp;Humidity;BMP_temperature;BMP_pressure;BME280_temperature;BME280_humidity;BME280_pressure;Samples;Min_cycle;Max_cycle;Signal;HPM_P1;HPM_P2
2022/09/10 00:01:24;;;;;;;20.10;15.82;;;;;;;;;;6245672;23;20020;-71
2022/09/10 00:03:53;;;;;;;21.52;16.10;;;;;;;;;;6219182;23;20016;-70
2022/09/10 00:06:24;;;;;;;22.67;15.93;;;;;;;;;;6245695;23;20043;-71
2022/09/10 00:08:52;;;;;;;23.95;17.88;;;;;;;;;;6245396;23;20458;-70
2022/09/10 00:11:20;;;;;;;38.03;30.98;;;;;;;;;;6245657;23;20020;-72
2022/09/10 00:13:48;;;;;;;23.95;19.63;;;;;;;;;;6245568;23;20020;-70
2022/09/10 00:16:19;;;;;;;31.33;22.98;;;;;;;;;;6245782;23;20062;-72
2022/09/10 00:18:47;;;;;;;28.88;21.88;;;;;;;;;;6245840;23;20019;-72
2022/09/10 00:21:16;;;;;;;20.92;16.85;;;;;;;;;;6245708;23;20043;-72
2022/09/10 00:23:44;;;;;;;23.55;17.02;;;;;;;;;;6245529;23;20016;-71
2022/09/10 00:26:22;;;;;;;27.05;17.08;;;;;;;;;;6245322;23;20019;-70
2022/09/10 00:28:51;;;;;;;21.65;17.33;;;;;;;;;;6219116;23;20016;-71
2022/09/10 00:31:20;;;;;;;29.25;21.17;;;;;;;;;;6219184;23;20062;-72
2022/09/10 00:33:49;;;;;;;30.42;22.70;;;;;;;;;;6219215;23;20468;-72
2022/09/10 00:36:24;;;;;;;29.65;25.02;;;;;;;;;;6245454;23;20019;-71
2022/09/10 00:38:52;;;;;;;25.05;17.67;;;;;;;;;;6218398;23;20031;-71
2022/09/10 00:41:20;;;;;;;23.70;20.20;;;;;;;;;;6218369;23;20044;-72
2022/09/10 00:43:49;;;;;;;22.23;16.67;;;;;;;;;;6245490;23;20320;-72
2022/09/10 00:46:24;;;;;;;23.60;17.63;;;;;;;;;;6218763;23;20020;-73
2022/09/10 00:48:53;;;;;;;26.35;19.60;;;;;;;;;;6245590;23;20062;-72
2022/09/10 00:51:20;;;;;;;29.13;19.02;;;;;;;;;;6218580;23;20024;-71
2022/09/10 00:53:49;;;;;;;24.05;17.52;;;;;;;;;;6218914;23;20024;-73
2022/09/10 00:56:17;;;;;;;19.67;16.55;;;;;;;;;;6218266;23;20328;-70
2022/09/10 00:58:46;;;;;;;22.13;15.82;;;;;;;;;;6218422;23;20100;-72
2022/09/10 01:01:14;;;;;;;21.88;18.27;;;;;;;;;;6218550;23;20054;-72
2022/09/10 01:03:43;;;;;;;22.88;16.75;;;;;;;;;;6218499;23;20066;-72
2022/09/10 01:06:10;;;;;;;23.60;15.57;;;;;;;;;;6218491;23;20028;-72
2022/09/10 01:08:38;;;;;;;22.20;18.08;;;;;;;;;;6218189;23;20078;-71
2022/09/10 01:11:10;;;;;;;18.42;15.10;;;;;;;;;;6218168;23;20027;-72
2022/09/10 01:13:37;;;;;;;20.67;15.88;;;;;;;;;;6218082;23;20099;-72
2022/09/10 01:16:37;;;;;;;19.08;15.55;;;;;;;;;;6218085;23;20389;-71
2022/09/10 01:19:17;;;;;;;19.67;15.02;;;;;;;;;;6170706;23;20319;-72
2022/09/10 09:08:18;;;;;;;10.25;8.13;;;;;;;;;;6269235;22;20081;-73
2022/09/10 09:10:49;;;;;;;12.45;9.18;;;;;;;;;;6248770;22;20345;-73
2022/09/10 09:13:30;;;;;;;13.68;8.85;;;;;;;;;;6248689;22;20044;-74
2022/09/10 09:16:17;;;;;;;10.38;8.68;;;;;;;;;;6248692;22;20023;-75
2022/09/10 09:18:53;;;;;;;18.33;12.00;;;;;;;;;;6247357;22;20020;-75
2022/09/10 09:21:31;;;;;;;13.00;8.57;;;;;;;;;;6248127;22;20457;-75
2022/09/10 09:24:00;;;;;;;17.30;9.85;;;;;;;;;;6248579;22;20030;-76
2022/09/10 09:26:46;;;;;;;18.02;8.80;;;;;;;;;;6248805;22;20019;-71
2022/09/10 09:29:20;;;;;;;16.08;10.43;;;;;;;;;;6248573;22;20019;-72
2022/09/10 09:31:52;;;;;;;9.38;7.22;;;;;;;;;;6248563;22;20026;-72
2022/09/10 09:34:23;;;;;;;13.98;7.70;;;;;;;;;;6275757;22;20050;-71
2022/09/10 09:36:54;;;;;;;10.77;8.73;;;;;;;;;;6275186;22;20026;-71
2022/09/10 09:39:27;;;;;;;14.40;8.88;;;;;;;;;;6248384;22;20384;-72
2022/09/10 09:41:58;;;;;;;54.72;12.30;;;;;;;;;;6250789;22;20015;-71
2022/09/10 09:44:40;;;;;;;14.20;8.68;;;;;;;;;;6250507;22;20050;-71
2022/09/10 09:47:08;;;;;;;79.13;18.45;;;;;;;;;;6277395;22;20098;-71
2022/09/10 09:49:38;;;;;;;13.82;8.00;;;;;;;;;;6250816;22;20015;-72
2022/09/10 09:52:15;;;;;;;19.23;8.55;;;;;;;;;;6277093;22;20038;-71
2022/09/10 09:54:45;;;;;;;389.83;57.00;;;;;;;;;;6276494;22;20023;-72
2022/09/10 09:57:32;;;;;;;32.20;10.90;;;;;;;;;;6277461;22;20031;-71
2022/09/10 10:00:15;;;;;;;17.15;9.20;;;;;;;;;;6277414;22;20024;-71
2022/09/10 10:02:43;;;;;;;15.70;9.27;;;;;;;;;;6277115;22;20027;-71
2022/09/10 10:05:23;;;;;;;13.00;9.60;;;;;;;;;;6277568;22;20323;-72
2022/09/10 10:07:51;;;;;;;15.82;10.52;;;;;;;;;;6276934;22;20022;-71
2022/09/10 10:10:23;;;;;;;14.07;8.15;;;;;;;;;;6274806;22;20038;-71
2022/09/10 10:12:52;;;;;;;14.38;7.97;;;;;;;;;;6276469;22;20019;-71
2022/09/10 10:15:41;;;;;;;16.90;7.50;;;;;;;;;;6277060;22;20015;-71
2022/09/10 10:18:30;;;;;;;17.05;9.75;;;;;;;;;;6276953;22;20026;-71
2022/09/10 10:21:15;;;;;;;13.55;8.60;;;;;;;;;;6248584;22;20046;-70
2022/09/10 10:23:43;;;;;;;13.88;9.45;;;;;;;;;;6276572;22;20020;-72
2022/09/10 10:26:29;;;;;;;14.13;8.65;;;;;;;;;;6276585;22;20034;-72
2022/09/10 10:29:00;;;;;;;8.55;7.65;;;;;;;;;;6277204;22;20015;-72
2022/09/10 10:31:36;;;;;;;10.35;7.20;;;;;;;;;;6276679;22;20016;-72
2022/09/10 10:34:14;;;;;;;12.52;7.82;;;;;;;;;;6276625;22;20070;-72
2022/09/10 10:36:41;;;;;;;15.15;8.65;;;;;;;;;;6276738;22;20337;-72
2022/09/10 10:39:18;;;;;;;14.43;9.20;;;;;;;;;;6276991;22;20012;-72
2022/09/10 10:41:57;;;;;;;14.23;9.45;;;;;;;;;;6276451;22;20023;-72
2022/09/10 10:44:46;;;;;;;31.33;27.95;;;;;;;;;;6276726;22;20077;-72
2022/09/10 10:47:33;;;;;;;18.88;14.32;;;;;;;;;;6245287;22;20102;-72
2022/09/10 10:50:11;;;;;;;15.02;8.60;;;;;;;;;;6276436;22;20026;-72
2022/09/10 10:52:57;;;;;;;16.92;10.88;;;;;;;;;;6276061;22;20022;-72
2022/09/10 10:55:28;;;;;;;10.68;7.15;;;;;;;;;;6276657;22;20022;-72
2022/09/10 10:58:11;;;;;;;21.30;15.02;;;;;;;;;;6276217;22;20035;-72
2022/09/10 11:00:45;;;;;;;10.55;8.07;;;;;;;;;;6276840;22;20019;-72
2022/09/10 11:03:17;;;;;;;15.30;11.35;;;;;;;;;;6276157;22;20019;-72
2022/09/10 11:05:47;;;;;;;17.88;10.82;;;;;;;;;;6276322;22;20437;-72
2022/09/10 11:08:18;;;;;;;20.23;10.25;;;;;;;;;;6248828;22;20019;-72
2022/09/10 11:10:53;;;;;;;11.85;6.30;;;;;;;;;;6276487;22;20023;-72
2022/09/10 11:13:24;;;;;;;11.23;6.80;;;;;;;;;;6249583;22;20018;-72
2022/09/10 11:16:27;;;;;;;22.27;10.85;;;;;;;;;;6276598;22;20061;-72
2022/09/10 11:18:55;;;;;;;11.93;6.63;;;;;;;;;;6157900;23;20031;-72
2022/09/10 11:21:32;;;;;;;12.77;6.53;;;;;;;;;;6259419;22;20077;-72
2022/09/10 11:24:04;;;;;;;12.65;7.47;;;;;;;;;;6276374;22;20022;-72
2022/09/10 11:26:42;;;;;;;34.65;23.98;;;;;;;;;;6276447;22;20019;-73
2022/09/10 11:29:27;;;;;;;8.55;5.78;;;;;;;;;;6276312;22;20453;-72
2022/09/10 11:32:09;;;;;;;11.15;6.55;;;;;;;;;;6275798;22;20016;-73
2022/09/10 11:34:57;;;;;;;19.58;8.85;;;;;;;;;;6275919;22;20016;-73
2022/09/10 11:37:39;;;;;;;10.85;6.30;;;;;;;;;;6249005;22;20022;-73
2022/09/10 11:40:12;;;;;;;11.15;6.88;;;;;;;;;;6276431;22;20024;-72
2022/09/10 11:42:40;;;;;;;14.13;6.55;;;;;;;;;;6275258;22;20085;-72
2022/09/10 11:45:08;;;;;;;14.07;6.72;;;;;;;;;;6275526;22;20020;-72
2022/09/10 11:47:42;;;;;;;17.45;7.97;;;;;;;;;;6248697;22;20023;-72
2022/09/10 11:50:28;;;;;;;30.40;12.18;;;;;;;;;;6275571;22;20041;-72
2022/09/10 11:53:00;;;;;;;31.50;22.63;;;;;;;;;;6275684;22;20016;-72
2022/09/10 11:55:48;;;;;;;68.10;52.33;;;;;;;;;;6276115;22;20015;-72
2022/09/10 11:58:34;;;;;;;17.40;10.07;;;;;;;;;;6273898;22;20016;-72
2022/09/10 12:01:10;;;;;;;18.90;7.30;;;;;;;;;;6275562;22;20026;-73
2022/09/10 12:03:58;;;;;;;12.82;6.63;;;;;;;;;;6275179;22;20011;-73
2022/09/10 12:06:30;;;;;;;17.30;8.45;;;;;;;;;;6275379;22;20087;-73
2022/09/10 12:08:58;;;;;;;14.48;6.38;;;;;;;;;;6275625;22;20431;-73
2022/09/10 12:11:32;;;;;;;16.02;7.20;;;;;;;;;;6275632;22;20012;-72
2022/09/10 12:14:04;;;;;;;13.13;7.07;;;;;;;;;;6248801;22;20091;-72
2022/09/10 12:16:35;;;;;;;14.57;6.70;;;;;;;;;;6276001;22;20342;-72
2022/09/10 12:19:20;;;;;;;14.40;8.00;;;;;;;;;;6249182;22;20038;-72
2022/09/10 12:21:52;;;;;;;11.77;6.65;;;;;;;;;;6275721;22;20023;-72
2022/09/10 12:24:35;;;;;;;12.50;6.63;;;;;;;;;;6248883;22;20015;-71
2022/09/10 12:27:04;;;;;;;12.52;7.47;;;;;;;;;;6248416;22;20023;-72
2022/09/10 12:29:41;;;;;;;14.75;8.75;;;;;;;;;;6275586;22;20016;-71
2022/09/10 12:32:14;;;;;;;15.23;9.10;;;;;;;;;;6275984;22;20384;-72
2022/09/10 12:34:42;;;;;;;15.27;7.25;;;;;;;;;;6275739;22;20019;-71
2022/09/10 12:37:10;;;;;;;10.85;7.30;;;;;;;;;;6248152;22;20023;-71
2022/09/10 12:39:37;;;;;;;8.88;6.47;;;;;;;;;;6275165;22;20024;-72
2022/09/10 12:42:44;;;;;;;15.73;7.38;;;;;;;;;;6274905;22;20493;-73
2022/09/10 12:45:12;;;;;;;12.55;6.95;;;;;;;;;;6122405;23;20097;-72
2022/09/10 12:47:41;;;;;;;16.15;7.65;;;;;;;;;;6122462;23;20077;-72
2022/09/10 12:50:37;;;;;;;14.13;9.98;;;;;;;;;;6200202;22;20038;-72
2022/09/10 12:53:05;;;;;;;17.45;7.10;;;;;;;;;;6244647;22;20094;-72
2022/09/10 12:55:42;;;;;;;11.23;6.97;;;;;;;;;;6248549;22;20081;-72
2022/09/10 12:58:29;;;;;;;14.60;6.88;;;;;;;;;;6275370;22;20042;-71
2022/09/10 13:00:57;;;;;;;13.50;9.23;;;;;;;;;;6275060;22;20019;-72
2022/09/10 13:03:25;;;;;;;13.23;7.07;;;;;;;;;;6248787;22;20089;-72
2022/09/10 13:05:58;;;;;;;11.70;7.90;;;;;;;;;;6275156;22;20983;-72
2022/09/10 13:08:26;;;;;;;10.27;6.68;;;;;;;;;;6275366;22;20016;-71
2022/09/10 13:10:57;;;;;;;16.10;7.18;;;;;;;;;;6275279;22;20012;-72
2022/09/10 13:13:39;;;;;;;12.38;7.25;;;;;;;;;;6275225;22;20020;-72
2022/09/10 13:16:11;;;;;;;15.20;8.18;;;;;;;;;;6276681;22;20020;-72
2022/09/10 13:18:40;;;;;;;14.55;7.70;;;;;;;;;;6277390;22;20011;-72
2022/09/10 13:21:23;;;;;;;12.38;6.70;;;;;;;;;;6251175;22;20022;-72
2022/09/10 13:23:52;;;;;;;13.85;7.30;;;;;;;;;;6277247;22;20043;-71
2022/09/10 13:26:25;;;;;;;11.85;7.43;;;;;;;;;;6277260;22;20020;-70
2022/09/10 13:28:57;;;;;;;19.75;8.98;;;;;;;;;;6277405;22;20456;-70
2022/09/10 13:31:27;;;;;;;15.65;8.55;;;;;;;;;;6277033;22;20016;-70
2022/09/10 13:34:03;;;;;;;14.15;8.82;;;;;;;;;;6277330;22;20035;-72
2022/09/10 13:36:47;;;;;;;15.60;8.30;;;;;;;;;;6250281;22;20461;-70
2022/09/10 13:39:33;;;;;;;15.18;7.90;;;;;;;;;;6277152;22;20016;-70
2022/09/10 13:42:09;;;;;;;19.67;8.05;;;;;;;;;;6277567;22;20307;-70
2022/09/10 13:44:56;;;;;;;22.23;9.43;;;;;;;;;;6250312;22;20095;-70
2022/09/10 13:47:56;;;;;;;91.72;19.98;;;;;;;;;;6276649;22;20318;-71
2022/09/10 13:50:29;;;;;;;16.25;8.90;;;;;;;;;;6226394;22;20445;-70
2022/09/10 13:52:58;;;;;;;12.77;8.00;;;;;;;;;;6276772;22;20097;-69
2022/09/10 13:55:28;;;;;;;17.42;8.38;;;;;;;;;;6276208;22;20089;-71
2022/09/10 13:57:58;;;;;;;13.18;7.35;;;;;;;;;;6249325;22;20091;-71
2022/09/10 14:00:28;;;;;;;17.25;8.63;;;;;;;;;;6276704;22;20034;-71
2022/09/10 14:02:57;;;;;;;14.85;7.00;;;;;;;;;;6276095;22;20090;-69
2022/09/10 14:05:32;;;;;;;12.57;6.18;;;;;;;;;;6276265;22;20046;-71
2022/09/10 14:08:06;;;;;;;18.05;7.60;;;;;;;;;;6276564;22;20019;-70
2022/09/10 14:10:37;;;;;;;14.38;6.70;;;;;;;;;;6276184;22;20034;-71
2022/09/10 14:13:06;;;;;;;15.55;6.15;;;;;;;;;;6276682;22;20023;-70
2022/09/10 14:15:37;;;;;;;12.80;6.35;;;;;;;;;;6276467;22;20023;-70
2022/09/10 14:18:05;;;;;;;16.27;6.85;;;;;;;;;;6249229;22;20016;-71
2022/09/10 14:20:34;;;;;;;79.47;16.90;;;;;;;;;;6276717;22;20016;-71
2022/09/10 14:23:13;;;;;;;86.22;20.08;;;;;;;;;;6276599;22;20012;-70
2022/09/10 14:25:42;;;;;;;114.00;28.15;;;;;;;;;;6276437;22;20039;-70
2022/09/10 14:28:16;;;;;;;13.65;6.75;;;;;;;;;;6276485;22;20473;-71
2022/09/10 14:30:44;;;;;;;13.45;6.82;;;;;;;;;;6276107;22;20507;-72
2022/09/10 14:33:24;;;;;;;19.42;7.55;;;;;;;;;;6276913;22;20195;-71
2022/09/10 14:35:52;;;;;;;21.63;7.75;;;;;;;;;;6276783;22;20336;-70
2022/09/10 14:38:30;;;;;;;15.05;7.13;;;;;;;;;;6276484;22;20051;-71
2022/09/10 14:41:00;;;;;;;19.45;6.75;;;;;;;;;;6276505;22;20012;-71
2022/09/10 14:43:36;;;;;;;11.52;5.95;;;;;;;;;;6276978;22;20026;-71
2022/09/10 14:46:08;;;;;;;13.93;7.00;;;;;;;;;;6249248;22;20340;-71
2022/09/10 14:48:37;;;;;;;13.27;6.70;;;;;;;;;;6275958;22;20050;-71
2022/09/10 14:51:14;;;;;;;17.42;7.35;;;;;;;;;;6276354;22;20022;-71
2022/09/10 14:53:42;;;;;;;12.20;6.75;;;;;;;;;;6276695;22;20012;-71
2022/09/10 14:56:18;;;;;;;13.52;6.22;;;;;;;;;;6276164;22;20065;-71
2022/09/10 14:58:46;;;;;;;16.35;9.40;;;;;;;;;;6276332;22;20077;-71
2022/09/10 15:01:14;;;;;;;15.43;8.57;;;;;;;;;;6249460;22;20020;-71
2022/09/10 15:03:42;;;;;;;22.65;9.45;;;;;;;;;;6275924;22;20446;-71
2022/09/10 15:06:09;;;;;;;12.48;7.70;;;;;;;;;;6276108;22;20019;-71
2022/09/10 15:08:38;;;;;;;12.32;6.20;;;;;;;;;;6275983;22;20012;-71
2022/09/10 15:11:05;;;;;;;12.13;5.53;;;;;;;;;;6276401;22;20035;-71
2022/09/10 15:13:35;;;;;;;13.13;6.63;;;;;;;;;;6275800;22;20019;-71
2022/09/10 15:16:03;;;;;;;15.35;6.20;;;;;;;;;;6276211;22;20008;-71
2022/09/10 15:18:30;;;;;;;12.98;7.07;;;;;;;;;;6276155;22;20911;-71
2022/09/10 15:21:00;;;;;;;12.63;5.53;;;;;;;;;;6249146;22;20012;-71
2022/09/10 15:23:28;;;;;;;12.02;5.88;;;;;;;;;;6248191;22;20341;-72
2022/09/10 15:25:56;;;;;;;9.73;5.40;;;;;;;;;;6276095;22;20012;-71
2022/09/10 15:28:24;;;;;;;13.25;6.28;;;;;;;;;;6248703;22;20019;-71
2022/09/10 15:30:51;;;;;;;9.88;5.53;;;;;;;;;;6276178;22;20020;-71
2022/09/10 15:33:19;;;;;;;10.48;5.60;;;;;;;;;;6248896;22;20011;-73
2022/09/10 15:35:47;;;;;;;13.43;5.90;;;;;;;;;;6248983;22;20349;-70
2022/09/10 15:38:15;;;;;;;10.00;5.65;;;;;;;;;;6274935;22;20023;-73
2022/09/10 15:40:42;;;;;;;12.43;5.22;;;;;;;;;;6247981;22;20377;-75
2022/09/10 15:43:10;;;;;;;9.93;5.72;;;;;;;;;;6275380;22;20426;-75
2022/09/10 15:45:38;;;;;;;11.98;5.95;;;;;;;;;;6249569;22;20085;-75
2022/09/10 15:48:06;;;;;;;14.73;5.60;;;;;;;;;;6274992;22;20047;-76
2022/09/10 15:50:33;;;;;;;10.43;5.90;;;;;;;;;;6275155;22;20122;-76
2022/09/10 15:53:01;;;;;;;10.40;5.10;;;;;;;;;;6274131;22;20329;-75
2022/09/10 15:55:29;;;;;;;12.90;5.30;;;;;;;;;;6247290;22;20461;-76
2022/09/10 15:57:57;;;;;;;11.52;5.55;;;;;;;;;;6247372;22;20026;-75
2022/09/10 16:00:24;;;;;;;10.50;5.60;;;;;;;;;;6274415;22;20016;-75
2022/09/10 16:02:52;;;;;;;11.63;5.55;;;;;;;;;;6249078;22;20030;-74
2022/09/10 16:05:20;;;;;;;17.20;11.57;;;;;;;;;;6276008;22;20087;-73
2022/09/10 16:07:48;;;;;;;12.13;5.03;;;;;;;;;;6275721;22;20008;-74
2022/09/10 16:10:16;;;;;;;13.90;8.00;;;;;;;;;;6276221;22;20035;-72
2022/09/10 16:12:43;;;;;;;11.02;6.20;;;;;;;;;;6275766;22;20449;-74
2022/09/10 16:15:11;;;;;;;9.45;4.95;;;;;;;;;;6248621;22;20341;-73
2022/09/10 16:17:39;;;;;;;8.40;5.32;;;;;;;;;;6275932;22;20012;-74
2022/09/10 16:20:07;;;;;;;8.85;5.18;;;;;;;;;;6275770;22;20523;-74
2022/09/10 16:22:35;;;;;;;10.75;5.72;;;;;;;;;;6248221;22;20015;-73
2022/09/10 16:25:07;;;;;;;11.90;4.57;;;;;;;;;;6248131;22;20019;-74
2022/09/10 16:27:34;;;;;;;8.80;4.90;;;;;;;;;;6274678;22;20511;-74
2022/09/10 16:30:01;;;;;;;9.57;5.32;;;;;;;;;;6275402;22;20069;-74
2022/09/10 16:32:29;;;;;;;8.13;5.93;;;;;;;;;;6274991;22;20020;-72
2022/09/10 16:34:59;;;;;;;11.25;6.22;;;;;;;;;;6275646;22;20012;-74
2022/09/10 16:37:26;;;;;;;10.13;5.82;;;;;;;;;;6274545;22;20099;-73
2022/09/10 16:39:54;;;;;;;10.80;6.38;;;;;;;;;;6275680;22;20061;-73
2022/09/10 16:42:21;;;;;;;13.73;6.65;;;;;;;;;;6275484;22;20045;-73
2022/09/10 16:44:49;;;;;;;16.13;6.85;;;;;;;;;;6275010;22;20038;-71
2022/09/10 16:47:16;;;;;;;10.93;5.78;;;;;;;;;;6275368;22;20016;-72
2022/09/10 16:49:44;;;;;;;9.77;5.68;;;;;;;;;;6275133;22;20059;-72
2022/09/10 16:52:11;;;;;;;11.43;6.00;;;;;;;;;;6274649;22;20439;-73
2022/09/10 16:54:39;;;;;;;9.07;6.32;;;;;;;;;;6275312;22;20015;-73
2022/09/10 16:57:07;;;;;;;10.40;6.32;;;;;;;;;;6275089;22;20023;-73
2022/09/10 16:59:34;;;;;;;11.07;6.90;;;;;;;;;;6275403;22;20015;-72
2022/09/10 17:02:02;;;;;;;11.88;6.93;;;;;;;;;;6275406;22;20073;-72
2022/09/10 17:04:31;;;;;;;9.57;6.30;;;;;;;;;;6275082;22;20441;-72
2022/09/10 17:06:59;;;;;;;11.25;7.63;;;;;;;;;;6275143;22;20311;-73
2022/09/10 17:09:26;;;;;;;12.30;8.20;;;;;;;;;;6275100;22;20024;-72
2022/09/10 17:11:57;;;;;;;14.27;9.40;;;;;;;;;;6276057;22;20086;-73
2022/09/10 17:14:24;;;;;;;14.68;10.90;;;;;;;;;;6273807;22;20023;-74
2022/09/10 17:16:52;;;;;;;15.30;9.55;;;;;;;;;;6273477;22;20077;-73
2022/09/10 17:19:22;;;;;;;18.60;13.35;;;;;;;;;;6247101;22;20019;-73
2022/09/10 17:21:51;;;;;;;13.90;10.45;;;;;;;;;;6247719;22;20015;-72
2022/09/10 17:24:21;;;;;;;17.42;13.77;;;;;;;;;;6247774;22;20444;-72
2022/09/10 17:26:49;;;;;;;17.52;14.98;;;;;;;;;;6275172;22;20023;-72
2022/09/10 17:29:21;;;;;;;18.05;13.25;;;;;;;;;;6247703;22;20027;-72
2022/09/10 17:31:50;;;;;;;17.33;12.02;;;;;;;;;;6275278;22;20012;-74
2022/09/10 17:34:23;;;;;;;14.98;10.85;;;;;;;;;;6275513;22;20501;-73
2022/09/10 17:36:51;;;;;;;10.82;9.70;;;;;;;;;;6248396;22;20015;-73
2022/09/10 17:39:18;;;;;;;12.88;9.70;;;;;;;;;;6275272;22;20414;-73
2022/09/10 17:41:47;;;;;;;14.88;12.30;;;;;;;;;;6275448;22;20019;-73
2022/09/10 17:44:15;;;;;;;12.30;7.72;;;;;;;;;;6275372;22;20012;-74
2022/09/10 17:46:43;;;;;;;11.88;8.10;;;;;;;;;;6275042;22;20022;-72
2022/09/10 17:49:14;;;;;;;15.73;9.07;;;;;;;;;;6274779;22;20020;-74
2022/09/10 17:51:42;;;;;;;13.05;10.27;;;;;;;;;;6275456;22;20023;-74
2022/09/10 17:54:11;;;;;;;12.02;9.23;;;;;;;;;;6274620;22;20064;-73
2022/09/10 17:56:40;;;;;;;9.25;6.40;;;;;;;;;;6274662;22;20027;-74
2022/09/10 17:59:11;;;;;;;12.10;8.23;;;;;;;;;;6275325;22;20035;-74
2022/09/10 18:01:39;;;;;;;10.88;6.57;;;;;;;;;;6275204;22;20069;-74
2022/09/10 18:04:07;;;;;;;11.95;7.30;;;;;;;;;;6276981;22;20091;-75
2022/09/10 18:06:35;;;;;;;16.48;13.05;;;;;;;;;;6250030;22;20019;-76
2022/09/10 18:09:06;;;;;;;9.68;7.63;;;;;;;;;;6277012;22;20096;-74
2022/09/10 18:11:36;;;;;;;9.85;7.70;;;;;;;;;;6275933;22;20011;-74
2022/09/10 18:14:03;;;;;;;8.80;7.05;;;;;;;;;;6276668;22;20027;-72
2022/09/10 18:16:32;;;;;;;12.73;6.95;;;;;;;;;;6249839;22;20026;-74
2022/09/10 18:19:06;;;;;;;10.15;6.55;;;;;;;;;;6250294;22;20106;-74
2022/09/10 18:21:40;;;;;;;13.40;7.05;;;;;;;;;;6276730;22;20023;-74
2022/09/10 18:24:15;;;;;;;21.85;15.30;;;;;;;;;;6276552;22;20031;-76
2022/09/10 18:26:45;;;;;;;14.77;9.40;;;;;;;;;;6276627;22;20023;-73
2022/09/10 18:29:12;;;;;;;9.63;6.75;;;;;;;;;;6276296;22;20016;-74
2022/09/10 18:31:42;;;;;;;25.33;17.95;;;;;;;;;;6276353;22;20016;-74
2022/09/10 18:34:11;;;;;;;26.23;20.85;;;;;;;;;;6276296;22;20030;-74
2022/09/10 18:36:39;;;;;;;10.18;7.20;;;;;;;;;;6275872;22;20035;-73
2022/09/10 18:39:09;;;;;;;13.05;9.32;;;;;;;;;;6248696;22;20100;-71
2022/09/10 18:41:37;;;;;;;16.42;10.77;;;;;;;;;;6275903;22;20016;-72
2022/09/10 18:44:06;;;;;;;10.23;7.97;;;;;;;;;;6276181;22;20012;-72
2022/09/10 18:46:35;;;;;;;11.13;8.57;;;;;;;;;;6249416;22;20027;-72
2022/09/10 18:49:04;;;;;;;12.10;8.73;;;;;;;;;;6276862;22;20035;-71
2022/09/10 18:51:31;;;;;;;11.82;7.85;;;;;;;;;;6276109;22;20020;-73
2022/09/10 18:54:00;;;;;;;14.30;8.45;;;;;;;;;;6276635;22;20020;-72
2022/09/10 18:56:29;;;;;;;23.02;17.52;;;;;;;;;;6249740;22;20323;-72
2022/09/10 18:59:04;;;;;;;12.18;8.10;;;;;;;;;;6276481;22;20086;-71
2022/09/10 19:01:31;;;;;;;12.25;8.63;;;;;;;;;;6276463;22;20500;-71
2022/09/10 19:04:04;;;;;;;12.05;8.50;;;;;;;;;;6277274;22;20058;-73
2022/09/10 19:06:32;;;;;;;17.15;13.73;;;;;;;;;;6277993;22;20023;-73
2022/09/10 19:09:03;;;;;;;12.30;8.63;;;;;;;;;;6276799;22;20503;-73
2022/09/10 19:11:32;;;;;;;12.68;8.77;;;;;;;;;;6276336;22;20016;-71
2022/09/10 19:14:01;;;;;;;15.38;9.05;;;;;;;;;;6275743;22;20034;-72
2022/09/10 19:16:30;;;;;;;14.23;10.13;;;;;;;;;;6275723;22;20533;-72
2022/09/10 19:18:59;;;;;;;13.95;8.90;;;;;;;;;;6275976;22;20008;-72
2022/09/10 19:21:27;;;;;;;16.13;11.55;;;;;;;;;;6276018;22;20030;-71
2022/09/10 19:23:55;;;;;;;26.45;22.08;;;;;;;;;;6274908;22;20012;-71
2022/09/10 19:26:26;;;;;;;14.18;9.68;;;;;;;;;;6275979;22;20019;-71
2022/09/10 19:28:56;;;;;;;15.05;12.50;;;;;;;;;;6275800;22;20011;-72
2022/09/10 19:31:24;;;;;;;18.77;11.90;;;;;;;;;;6275997;22;20022;-71
2022/09/10 19:33:58;;;;;;;14.63;9.48;;;;;;;;;;6276031;22;20019;-72
2022/09/10 19:36:26;;;;;;;15.43;9.57;;;;;;;;;;6274865;22;20063;-72
2022/09/10 19:38:54;;;;;;;12.27;10.25;;;;;;;;;;6247744;22;20043;-71
2022/09/10 19:41:24;;;;;;;13.88;9.30;;;;;;;;;;6275240;22;20037;-71
2022/09/10 19:43:52;;;;;;;17.02;10.50;;;;;;;;;;6275989;22;20023;-71
2022/09/10 19:46:21;;;;;;;16.65;9.32;;;;;;;;;;6276150;22;20019;-72
2022/09/10 19:48:52;;;;;;;9.63;8.63;;;;;;;;;;6276197;22;20027;-71
2022/09/10 19:51:19;;;;;;;9.50;7.75;;;;;;;;;;6276095;22;20015;-72
2022/09/10 19:53:48;;;;;;;16.73;13.23;;;;;;;;;;6276312;22;20012;-72
2022/09/10 19:56:18;;;;;;;14.02;9.30;;;;;;;;;;6275752;22;20081;-73
2022/09/10 19:58:51;;;;;;;11.05;8.98;;;;;;;;;;6276234;22;20039;-72
2022/09/10 20:01:20;;;;;;;15.10;10.57;;;;;;;;;;6248920;22;20579;-74
2022/09/10 20:03:49;;;;;;;27.60;20.73;;;;;;;;;;6249764;22;20012;-73
2022/09/10 20:06:19;;;;;;;11.80;8.90;;;;;;;;;;6275038;22;20023;-71
2022/09/10 20:08:49;;;;;;;12.20;8.07;;;;;;;;;;6275204;22;20046;-71
2022/09/10 20:11:18;;;;;;;18.83;11.02;;;;;;;;;;6275457;22;20043;-72
2022/09/10 20:13:45;;;;;;;11.70;8.55;;;;;;;;;;6275644;22;20012;-71
2022/09/10 20:16:13;;;;;;;14.70;8.68;;;;;;;;;;6275145;22;20012;-73
2022/09/10 20:18:41;;;;;;;12.38;8.00;;;;;;;;;;6275814;22;20019;-71
2022/09/10 20:21:10;;;;;;;14.63;8.80;;;;;;;;;;6276147;22;20042;-72
2022/09/10 20:23:38;;;;;;;10.63;8.60;;;;;;;;;;6248910;22;20322;-72
2022/09/10 20:26:14;;;;;;;12.40;8.35;;;;;;;;;;6275362;22;20016;-72
2022/09/10 20:28:42;;;;;;;13.38;9.38;;;;;;;;;;6276279;22;20022;-72
2022/09/10 20:31:10;;;;;;;13.40;8.35;;;;;;;;;;6275568;22;20022;-72
2022/09/10 20:33:39;;;;;;;11.50;8.90;;;;;;;;;;6275740;22;20007;-71
2022/09/10 20:36:09;;;;;;;12.90;8.43;;;;;;;;;;6275559;22;20011;-72
2022/09/10 20:38:37;;;;;;;14.13;10.60;;;;;;;;;;6275712;22;20019;-72
2022/09/10 20:41:05;;;;;;;17.30;11.73;;;;;;;;;;6275720;22;20021;-71
2022/09/10 20:43:36;;;;;;;15.85;11.57;;;;;;;;;;6275514;22;20020;-72
2022/09/10 20:46:04;;;;;;;12.70;8.85;;;;;;;;;;6248493;22;20016;-72
2022/09/10 20:48:31;;;;;;;12.27;8.38;;;;;;;;;;6275697;22;20094;-72
2022/09/10 20:51:01;;;;;;;11.60;7.85;;;;;;;;;;6249205;22;20019;-71
2022/09/10 20:53:29;;;;;;;17.73;11.93;;;;;;;;;;6275683;22;20011;-71
2022/09/10 20:56:04;;;;;;;14.02;8.65;;;;;;;;;;6275573;22;20046;-71
2022/09/10 20:58:35;;;;;;;14.00;10.60;;;;;;;;;;6275742;22;20022;-71
2022/09/10 21:01:07;;;;;;;11.88;9.38;;;;;;;;;;6248490;22;20024;-71
2022/09/10 21:03:35;;;;;;;11.93;8.88;;;;;;;;;;6275723;22;20042;-71
2022/09/10 21:06:02;;;;;;;21.83;15.02;;;;;;;;;;6275284;22;20016;-71
2022/09/10 21:08:30;;;;;;;10.40;8.15;;;;;;;;;;6275312;22;20380;-71
2022/09/10 21:11:08;;;;;;;11.95;7.38;;;;;;;;;;6275981;22;20043;-72
2022/09/10 21:13:36;;;;;;;11.82;8.93;;;;;;;;;;6275669;22;20035;-72
2022/09/10 21:16:09;;;;;;;14.35;10.15;;;;;;;;;;6275255;22;20012;-72
2022/09/10 21:18:37;;;;;;;11.80;8.45;;;;;;;;;;6275618;22;20023;-72
2022/09/10 21:21:08;;;;;;;10.63;8.50;;;;;;;;;;6275431;22;20011;-73
2022/09/10 21:23:40;;;;;;;11.40;7.95;;;;;;;;;;6275916;22;20016;-72
2022/09/10 21:26:08;;;;;;;11.93;7.85;;;;;;;;;;6275497;22;20024;-71
2022/09/10 21:28:35;;;;;;;19.75;14.50;;;;;;;;;;6275707;22;20113;-71
2022/09/10 21:31:03;;;;;;;14.95;7.60;;;;;;;;;;6274500;22;20070;-71
2022/09/10 21:33:32;;;;;;;15.32;8.02;;;;;;;;;;6247932;22;20090;-71
2022/09/10 21:36:05;;;;;;;12.20;9.43;;;;;;;;;;6275717;22;20074;-73
2022/09/10 21:38:36;;;;;;;12.98;8.35;;;;;;;;;;6277101;22;20008;-71
2022/09/10 21:41:05;;;;;;;12.05;8.32;;;;;;;;;;6277128;22;20022;-71
2022/09/10 21:43:33;;;;;;;16.77;9.05;;;;;;;;;;6277316;22;20011;-72
2022/09/10 21:46:01;;;;;;;14.63;9.90;;;;;;;;;;6277227;22;20020;-72
2022/09/10 21:48:29;;;;;;;15.18;11.50;;;;;;;;;;6277232;22;20012;-71
2022/09/10 21:50:58;;;;;;;16.20;11.27;;;;;;;;;;6277277;22;20514;-71
2022/09/10 21:53:28;;;;;;;12.43;10.13;;;;;;;;;;6277098;22;20070;-71
2022/09/10 21:55:56;;;;;;;12.32;10.48;;;;;;;;;;6277526;22;20019;-71
2022/09/10 21:58:26;;;;;;;15.05;10.63;;;;;;;;;;6250538;22;20035;-72
2022/09/10 22:00:57;;;;;;;16.15;12.65;;;;;;;;;;6277188;22;20022;-71
2022/09/10 22:03:27;;;;;;;12.60;11.00;;;;;;;;;;6250443;22;20015;-71
2022/09/10 22:06:08;;;;;;;16.85;13.35;;;;;;;;;;6276554;22;20022;-72
2022/09/10 22:08:36;;;;;;;18.00;11.98;;;;;;;;;;6276983;22;20445;-72
2022/09/10 22:11:08;;;;;;;16.63;12.40;;;;;;;;;;6277230;22;20023;-72
2022/09/10 22:13:36;;;;;;;22.52;18.45;;;;;;;;;;6276151;22;20015;-72
2022/09/10 22:16:05;;;;;;;34.67;24.45;;;;;;;;;;6250675;22;20011;-71
2022/09/10 22:18:33;;;;;;;15.38;13.65;;;;;;;;;;6277253;22;20024;-71
2022/09/10 22:21:00;;;;;;;18.67;14.70;;;;;;;;;;6250341;22;20042;-71
2022/09/10 22:23:32;;;;;;;21.20;16.30;;;;;;;;;;6277502;22;20026;-71
2022/09/10 22:26:22;;;;;;;16.50;13.63;;;;;;;;;;6277208;22;20098;-71
2022/09/10 22:28:53;;;;;;;14.40;12.88;;;;;;;;;;6266190;22;20020;-71
2022/09/10 22:31:22;;;;;;;16.95;11.98;;;;;;;;;;6277391;22;20083;-71
2022/09/10 22:33:53;;;;;;;18.58;14.95;;;;;;;;;;6277368;22;20350;-71
2022/09/10 22:36:27;;;;;;;18.30;14.48;;;;;;;;;;6276853;22;20522;-71
2022/09/10 22:38:58;;;;;;;14.52;11.65;;;;;;;;;;6277689;22;20018;-71